New Orleans, Louisiana
Traffic Map
Current Weather Conditions
New Orleans, Louisiana
Clear
Clear
79°
Feels Like: 81°
Wind Chill: 79° Ceiling: Unl
Heat Index: 81° Visibility: mi
Dew Point: 70° Wind: 6mph
Humidity: 74% Direction: 170° (S)
Pressure: 30.06in Gusts: 0mph
Raw Report DataK7N0 020955Z AUTO 17005KT CLR 26/21 A3006 RMK AO1
Traffic Incident Summary
Active as of:
Severity:
Category:
InformationThere was an issue retrieving the traffic information for this location. Please try a different location or try again shortly.
Advertisements
Track Severe Weather on mobile